Terminal Aerodrome Forecast
Issued by NWS

Home | Current Version | Previous Version | Text Only | Print | Product List | Glossary Off
Versions: 1 2 3 4 5 6 7 8 9 10 11 12 13 14 15 16 17 18 19 20 21

632
FTUS43 KICT 261724
TAFRSL
TAF
KRSL 261724Z 2618/2718 08012KT P6SM OVC010
     FM262000 05009KT P6SM SCT015 BKN040
     FM262200 08012KT P6SM VCTS SCT015 BKN040CB
     FM270300 02010KT P6SM VCSH SCT007 BKN015
     FM270900 02015KT 4SM BR VCSH BKN007
     FM271400 01014KT P6SM SCT015 BKN080
     FM271700 01015KT P6SM SCT025=

USA.gov is the U.S. government's official web portal to all federal, state and local government web resources and services.